createdAt,value
2017-11-10T00:00:10.827Z,40.75
2017-11-10T00:01:13.404Z,51.58
2017-11-10T00:02:16.106Z,47.85
2017-11-10T00:03:18.629Z,47.35
2017-11-10T00:04:22.061Z,47.40
2017-11-10T00:05:24.578Z,46.80
2017-11-10T00:06:28.021Z,46.20
2017-11-10T00:07:30.541Z,57.08
2017-11-10T00:08:33.067Z,51.55
2017-11-10T00:09:36.326Z,50.50
2017-11-10T00:10:39.003Z,49.85
2017-11-10T00:11:41.521Z,51.88
2017-11-10T00:12:44.051Z,50.03
2017-11-10T00:13:47.327Z,45.33
2017-11-10T00:14:49.990Z,44.35
2017-11-10T00:15:52.515Z,44.78
2017-11-10T00:16:55.014Z,48.55
2017-11-10T00:17:57.498Z,44.50
2017-11-10T00:19:00.983Z,47.17
2017-11-10T00:20:03.464Z,42.53
2017-11-10T00:21:06.013Z,39.88
2017-11-10T00:22:09.368Z,47.03
2017-11-10T00:23:11.994Z,41.35
2017-11-10T00:24:15.284Z,42.08
2017-11-10T00:25:18.549Z,41.95
2017-11-10T00:26:21.046Z,40.85
2017-11-10T00:27:23.669Z,41.80
2017-11-10T00:28:26.173Z,40.33
2017-11-10T00:29:29.977Z,44.58
2017-11-10T00:30:32.452Z,48.38
2017-11-10T00:31:35.225Z,39.67
2017-11-10T00:32:37.710Z,40.03
2017-11-10T00:33:40.180Z,38.30
2017-11-10T00:34:42.709Z,46.40
2017-11-10T00:35:45.232Z,38.30
2017-11-10T00:36:50.201Z,45.67
2017-11-10T00:37:52.698Z,45.05
2017-11-10T00:38:55.194Z,40.35
2017-11-10T00:39:58.658Z,39.92
2017-11-10T00:41:01.133Z,38.20
2017-11-10T00:42:05.193Z,44.85
2017-11-10T00:43:07.684Z,38.42
2017-11-10T00:44:10.267Z,52.22
2017-11-10T00:45:12.784Z,39.47
2017-11-10T00:46:15.289Z,40.72
2017-11-10T00:47:17.762Z,39.10
2017-11-10T00:48:21.853Z,45.42
2017-11-10T00:49:24.382Z,42.67
2017-11-10T00:50:26.906Z,41.72
2017-11-10T00:51:30.169Z,31.85
2017-11-10T00:52:33.157Z,34.33
2017-11-10T00:53:36.398Z,35.67
2017-11-10T00:54:39.097Z,31.10
2017-11-10T00:55:41.602Z,36.03
2017-11-10T00:56:45.064Z,44.67
2017-11-10T00:57:49.074Z,36.53
2017-11-10T00:58:51.654Z,39.17
2017-11-10T00:59:54.918Z,33.47
2017-11-10T01:00:57.597Z,41.30
2017-11-10T01:02:00.854Z,34.05
2017-11-10T01:03:03.527Z,32.53
2017-11-10T01:04:06.013Z,34.60
2017-11-10T01:05:09.479Z,35.45
2017-11-10T01:06:12.020Z,37.95
2017-11-10T01:07:14.578Z,35.13
2017-11-10T01:08:17.055Z,34.22
2017-11-10T01:09:19.538Z,39.22
2017-11-10T01:10:22.053Z,40.22
2017-11-10T01:11:25.494Z,38.88
2017-11-10T01:12:27.975Z,30.33
2017-11-10T01:13:30.536Z,38.55
2017-11-10T01:14:33.037Z,38.17
2017-11-10T01:15:36.492Z,37.10
2017-11-10T01:16:40.499Z,38.38
2017-11-10T01:17:43.967Z,38.83
2017-11-10T01:18:46.479Z,37.17
2017-11-10T01:19:49.921Z,40.42
2017-11-10T01:20:52.396Z,40.28
2017-11-10T01:21:56.488Z,38.35
2017-11-10T01:22:59.869Z,37.33
2017-11-10T01:24:02.689Z,42.38
2017-11-10T01:25:06.573Z,45.30
2017-11-10T01:26:10.230Z,43.80
2017-11-10T01:27:13.049Z,48.10
2017-11-10T01:28:16.485Z,47.53
2017-11-10T01:29:18.975Z,39.72
2017-11-10T01:30:21.586Z,45.53
2017-11-10T01:31:24.081Z,44.55
2017-11-10T01:32:26.562Z,45.12
2017-11-10T01:33:29.035Z,42.62
2017-11-10T01:34:33.125Z,47.08
2017-11-10T01:35:35.763Z,47.92
2017-11-10T01:36:38.485Z,47.40
2017-11-10T01:37:40.962Z,45.63
2017-11-10T01:38:44.402Z,47.25
2017-11-10T01:39:46.887Z,45.22
2017-11-10T01:40:50.255Z,47.17
2017-11-10T01:41:53.174Z,41.47
2017-11-10T01:42:55.849Z,41.40
2017-11-10T01:43:59.095Z,43.87
2017-11-10T01:45:01.677Z,44.45
2017-11-10T01:46:05.681Z,41.22
2017-11-10T01:47:09.176Z,41.40
2017-11-10T01:48:14.520Z,45.92
2017-11-10T01:49:19.644Z,48.60
2017-11-10T01:50:22.886Z,45.03
2017-11-10T01:51:25.384Z,50.17
2017-11-10T01:52:27.867Z,39.53
2017-11-10T01:53:31.334Z,46.55
2017-11-10T01:54:34.577Z,43.87
2017-11-10T01:55:37.286Z,53.28
2017-11-10T01:56:39.820Z,49.40
2017-11-10T01:57:42.347Z,46.28
2017-11-10T01:58:45.605Z,51.45
2017-11-10T01:59:48.275Z,44.40
2017-11-10T02:00:51.564Z,49.45
2017-11-10T02:01:54.823Z,44.63
2017-11-10T02:02:58.130Z,46.95
2017-11-10T02:04:01.400Z,43.10
2017-11-10T02:05:04.672Z,43.83
2017-11-10T02:06:07.483Z,41.22
2017-11-10T02:07:10.786Z,37.60
2017-11-10T02:08:13.317Z,44.20
2017-11-10T02:09:16.577Z,41.63
2017-11-10T02:10:19.896Z,42.72
2017-11-10T02:11:23.187Z,41.50
2017-11-10T02:12:26.458Z,47.95
2017-11-10T02:13:29.727Z,38.72
2017-11-10T02:14:32.371Z,39.47
2017-11-10T02:15:34.986Z,35.75
2017-11-10T02:16:38.334Z,36.67
2017-11-10T02:17:40.823Z,44.35
2017-11-10T02:18:44.319Z,37.38
2017-11-10T02:19:46.838Z,43.58
2017-11-10T02:20:50.419Z,39.10
2017-11-10T02:21:52.913Z,39.97
2017-11-10T02:22:56.256Z,38.30
2017-11-10T02:23:58.787Z,40.80
2017-11-10T02:25:01.355Z,46.83
2017-11-10T02:26:03.900Z,44.38
2017-11-10T02:27:06.579Z,38.15
2017-11-10T02:28:10.063Z,46.90
2017-11-10T02:29:14.484Z,44.15
2017-11-10T02:30:17.060Z,46.13
2017-11-10T02:31:20.032Z,46.63
2017-11-10T02:32:22.552Z,49.55
2017-11-10T02:33:25.047Z,44.83
2017-11-10T02:34:27.564Z,41.83
2017-11-10T02:35:30.080Z,46.35
2017-11-10T02:36:32.583Z,51.22
2017-11-10T02:37:36.036Z,43.05
2017-11-10T02:38:38.549Z,59.78
2017-11-10T02:39:41.074Z,54.50
2017-11-10T02:40:43.581Z,58.90
2017-11-10T02:41:46.911Z,67.10
2017-11-10T02:42:49.427Z,57.17
2017-11-10T02:43:52.160Z,54.80
2017-11-10T02:44:55.415Z,63.63
2017-11-10T02:45:58.005Z,64.30
2017-11-10T02:47:00.561Z,65.65
2017-11-10T02:48:04.021Z,65.87
2017-11-10T02:49:06.520Z,59.55
2017-11-10T02:50:09.008Z,65.50
2017-11-10T02:51:11.511Z,63.38
2017-11-10T02:52:14.239Z,70.72
2017-11-10T02:53:16.749Z,59.60
2017-11-10T02:54:19.354Z,62.25
2017-11-10T02:55:22.633Z,64.35
2017-11-10T02:56:25.401Z,63.17
2017-11-10T02:57:28.746Z,66.80
2017-11-10T02:58:31.267Z,66.87
2017-11-10T02:59:35.272Z,69.85
2017-11-10T03:00:37.935Z,59.63
2017-11-10T03:01:40.470Z,79.15
2017-11-10T03:02:44.744Z,73.80
2017-11-10T03:03:47.255Z,65.18
2017-11-10T03:04:49.823Z,72.57
2017-11-10T03:05:52.329Z,73.25
2017-11-10T03:06:55.774Z,72.37
2017-11-10T03:07:58.262Z,64.97
2017-11-10T03:09:01.732Z,63.97
2017-11-10T03:10:04.219Z,67.65
2017-11-10T03:11:06.781Z,62.92
2017-11-10T03:12:10.802Z,80.20
2017-11-10T03:13:14.246Z,73.68
2017-11-10T03:14:16.749Z,70.40
2017-11-10T03:15:20.227Z,69.90
2017-11-10T03:16:22.740Z,64.57
2017-11-10T03:17:25.570Z,69.85
2017-11-10T03:18:28.846Z,68.28
2017-11-10T03:19:31.525Z,76.43
2017-11-10T03:20:34.033Z,67.50
2017-11-10T03:21:37.797Z,74.60
2017-11-10T03:22:41.085Z,63.03
2017-11-10T03:23:44.642Z,62.70
2017-11-10T03:24:48.652Z,60.38
2017-11-10T03:25:53.367Z,66.50
2017-11-10T03:26:56.637Z,77.15
2017-11-10T03:27:59.334Z,65.47
2017-11-10T03:29:01.813Z,70.32
2017-11-10T03:30:05.280Z,69.65
2017-11-10T03:31:08.166Z,69.53
2017-11-10T03:32:13.680Z,73.25
2017-11-10T03:33:16.161Z,71.43
2017-11-10T03:34:20.543Z,71.40
2017-11-10T03:35:23.021Z,75.60
2017-11-10T03:36:25.575Z,76.25
2017-11-10T03:37:28.064Z,85.53
2017-11-10T03:38:30.604Z,62.72
2017-11-10T03:39:33.089Z,77.37
2017-11-10T03:40:36.573Z,69.15
2017-11-10T03:41:39.098Z,71.10
2017-11-10T03:42:41.899Z,79.10
2017-11-10T03:43:44.383Z,78.57
2017-11-10T03:44:46.910Z,74.40
2017-11-10T03:45:49.416Z,71.15
2017-11-10T03:46:53.487Z,66.47
2017-11-10T03:47:55.966Z,85.43
2017-11-10T03:48:58.533Z,77.95
2017-11-10T03:50:01.018Z,79.20
2017-11-10T03:51:04.471Z,82.03
2017-11-10T03:52:06.972Z,75.90
2017-11-10T03:53:09.513Z,85.65
2017-11-10T03:54:12.150Z,72.75
2017-11-10T03:55:14.853Z,87.22
2017-11-10T03:56:17.338Z,83.60
2017-11-10T03:57:20.794Z,81.18
2017-11-10T03:58:23.266Z,76.37
2017-11-10T03:59:25.824Z,78.90
2017-11-10T04:00:28.312Z,71.45
2017-11-10T04:01:30.865Z,74.75
2017-11-10T04:02:33.353Z,83.07
2017-11-10T04:03:36.806Z,78.30
2017-11-10T04:04:39.281Z,73.62
2017-11-10T04:05:41.822Z,79.82
2017-11-10T04:06:44.356Z,73.55
2017-11-10T04:07:47.785Z,71.30
2017-11-10T04:08:50.271Z,79.85
2017-11-10T04:09:52.828Z,69.43
2017-11-10T04:10:56.259Z,86.43
2017-11-10T04:11:59.736Z,80.45
2017-11-10T04:13:02.985Z,67.78
2017-11-10T04:14:05.673Z,72.87
2017-11-10T04:15:08.144Z,78.30
2017-11-10T04:16:10.695Z,77.90
2017-11-10T04:17:13.177Z,80.82
2017-11-10T04:18:16.657Z,78.68
2017-11-10T04:19:19.155Z,79.30
2017-11-10T04:20:22.592Z,83.85
2017-11-10T04:21:25.085Z,83.53
2017-11-10T04:22:29.478Z,76.93
2017-11-10T04:23:31.959Z,80.07
2017-11-10T04:24:34.502Z,85.53
2017-11-10T04:25:36.997Z,79.22
2017-11-10T04:26:40.446Z,82.18
2017-11-10T04:27:42.926Z,80.75
2017-11-10T04:28:45.495Z,85.93
2017-11-10T04:29:47.962Z,76.18
2017-11-10T04:30:50.562Z,80.75
2017-11-10T04:31:53.799Z,79.57
2017-11-10T04:32:56.460Z,80.55
2017-11-10T04:33:58.945Z,84.57
2017-11-10T04:35:01.494Z,83.72
2017-11-10T04:36:03.996Z,94.40
2017-11-10T04:37:07.449Z,89.68
2017-11-10T04:38:09.933Z,81.22
2017-11-10T04:39:13.417Z,89.22
2017-11-10T04:40:18.343Z,93.32
2017-11-10T04:41:20.928Z,93.97
2017-11-10T04:42:24.175Z,81.43
2017-11-10T04:43:28.097Z,74.18
2017-11-10T04:44:30.616Z,81.57
2017-11-10T04:45:33.407Z,90.60
2017-11-10T04:46:35.906Z,84.93
2017-11-10T04:47:39.352Z,84.95
2017-11-10T04:48:41.833Z,84.87
2017-11-10T04:49:44.391Z,82.03
2017-11-10T04:50:46.858Z,84.13
2017-11-10T04:51:50.633Z,102.00
2017-11-10T04:52:53.113Z,102.55
2017-11-10T04:53:55.700Z,81.75
2017-11-10T04:54:58.190Z,100.55
2017-11-10T04:56:01.641Z,93.68
2017-11-10T04:57:05.278Z,99.95
2017-11-10T04:58:08.859Z,94.37
2017-11-10T04:59:12.117Z,85.50
2017-11-10T05:00:14.770Z,98.07
2017-11-10T05:01:17.255Z,87.78
2017-11-10T05:02:20.409Z,103.07
2017-11-10T05:03:22.901Z,103.15
2017-11-10T05:04:27.388Z,112.15
2017-11-10T05:05:29.864Z,104.05
2017-11-10T05:06:32.638Z,108.00
2017-11-10T05:07:35.122Z,108.03
2017-11-10T05:08:39.230Z,111.93
2017-11-10T05:09:42.497Z,101.00
2017-11-10T05:10:46.707Z,114.80
2017-11-10T05:11:49.204Z,107.10
2017-11-10T05:12:52.637Z,109.00
2017-11-10T05:13:55.152Z,97.45
2017-11-10T05:14:57.679Z,107.03
2017-11-10T05:16:00.207Z,120.22
2017-11-10T05:17:03.034Z,122.13
2017-11-10T05:18:05.548Z,123.10
2017-11-10T05:19:08.379Z,111.62
2017-11-10T05:20:11.710Z,118.03
2017-11-10T05:21:14.353Z,118.82
2017-11-10T05:22:17.630Z,113.20
2017-11-10T05:23:21.177Z,109.12
2017-11-10T05:24:23.665Z,107.43
2017-11-10T05:25:26.205Z,127.15
2017-11-10T05:26:28.709Z,120.75
2017-11-10T05:27:31.253Z,127.68
2017-11-10T05:28:33.757Z,111.37
2017-11-10T05:29:37.197Z,130.20
2017-11-10T05:30:39.685Z,120.57
2017-11-10T05:31:42.255Z,111.75
2017-11-10T05:32:44.782Z,113.18
2017-11-10T05:33:47.561Z,108.65
2017-11-10T05:34:50.149Z,115.47
2017-11-10T05:35:52.889Z,122.78
2017-11-10T05:36:55.481Z,128.35
2017-11-10T05:37:58.896Z,119.75
2017-11-10T05:39:02.157Z,117.45
2017-11-10T05:40:05.434Z,124.45
2017-11-10T05:41:07.934Z,127.50
2017-11-10T05:42:11.440Z,116.12
2017-11-10T05:43:13.926Z,118.10
2017-11-10T05:44:16.722Z,115.55
2017-11-10T05:45:19.212Z,108.57
2017-11-10T05:46:21.766Z,117.85
2017-11-10T05:47:24.237Z,117.32
2017-11-10T05:48:26.811Z,120.68
2017-11-10T05:49:30.070Z,114.90
2017-11-10T05:50:32.723Z,118.57
2017-11-10T05:51:35.230Z,117.53
2017-11-10T05:52:37.758Z,108.30
2017-11-10T05:53:40.267Z,116.12
2017-11-10T05:54:43.715Z,122.70
2017-11-10T05:55:46.198Z,134.25
2017-11-10T05:56:50.298Z,126.12
2017-11-10T05:57:52.810Z,113.90
2017-11-10T05:58:55.363Z,115.70
2017-11-10T05:59:58.612Z,112.90
2017-11-10T06:01:12.814Z,113.57
2017-11-10T06:02:15.308Z,104.72
2017-11-10T06:03:17.981Z,122.70
2017-11-10T06:04:20.577Z,118.80
2017-11-10T06:05:23.928Z,106.55
2017-11-10T06:06:26.438Z,115.75
2017-11-10T06:07:28.992Z,123.62
2017-11-10T06:08:32.251Z,116.03
2017-11-10T06:09:34.919Z,111.80
2017-11-10T06:10:37.395Z,113.45
2017-11-10T06:11:40.858Z,111.43
2017-11-10T06:12:43.349Z,114.78
2017-11-10T06:13:45.941Z,112.12
2017-11-10T06:14:49.206Z,100.55
2017-11-10T06:15:51.847Z,103.82
2017-11-10T06:16:55.254Z,109.47
2017-11-10T06:17:58.506Z,113.03
2017-11-10T06:19:01.011Z,109.87
2017-11-10T06:20:03.778Z,111.30
2017-11-10T06:21:06.327Z,119.28
2017-11-10T06:22:09.106Z,106.00
2017-11-10T06:23:11.599Z,104.93
2017-11-10T06:24:15.075Z,109.53
2017-11-10T06:25:17.551Z,87.62
2017-11-10T06:26:21.026Z,99.70
2017-11-10T06:27:24.016Z,101.00
2017-11-10T06:28:28.326Z,119.70
2017-11-10T06:29:31.589Z,96.82
2017-11-10T06:30:34.161Z,109.15
2017-11-10T06:31:36.646Z,102.28
2017-11-10T06:32:40.114Z,111.55
2017-11-10T06:33:44.506Z,107.90
2017-11-10T06:34:47.273Z,103.70
2017-11-10T06:35:50.217Z,106.03
2017-11-10T06:36:52.903Z,109.28
2017-11-10T06:37:55.429Z,93.78
2017-11-10T06:38:58.906Z,91.82
2017-11-10T06:40:02.200Z,106.40
2017-11-10T06:41:05.747Z,102.18
2017-11-10T06:42:08.225Z,101.85
2017-11-10T06:43:10.789Z,93.20
2017-11-10T06:44:13.321Z,98.15
2017-11-10T06:45:16.124Z,98.82
2017-11-10T06:46:19.489Z,93.15
2017-11-10T06:47:22.082Z,91.70
2017-11-10T06:48:26.062Z,91.43
2017-11-10T06:49:28.663Z,105.45
2017-11-10T06:50:31.130Z,91.63
2017-11-10T06:51:33.645Z,97.55
2017-11-10T06:52:36.119Z,99.10
2017-11-10T06:53:38.709Z,89.85
2017-11-10T06:54:41.282Z,92.10
2017-11-10T06:55:44.060Z,90.93
2017-11-10T06:56:46.556Z,91.37
2017-11-10T06:57:49.051Z,88.50
2017-11-10T06:58:51.550Z,89.80
2017-11-10T06:59:54.094Z,96.80
2017-11-10T07:00:56.576Z,111.05
2017-11-10T07:02:00.057Z,93.57
2017-11-10T07:03:02.549Z,87.30
2017-11-10T07:04:05.090Z,94.78
2017-11-10T07:05:07.586Z,91.32
2017-11-10T07:06:11.058Z,102.70
2017-11-10T07:07:13.558Z,88.97
2017-11-10T07:08:16.086Z,93.55
2017-11-10T07:09:18.585Z,92.80
2017-11-10T07:10:22.345Z,102.00
2017-11-10T07:11:24.850Z,93.03
2017-11-10T07:12:27.386Z,91.47
2017-11-10T07:13:29.869Z,95.50
2017-11-10T07:14:33.325Z,88.40
2017-11-10T07:15:35.862Z,93.70
2017-11-10T07:16:38.648Z,93.15
2017-11-10T07:17:41.701Z,77.45
2017-11-10T07:18:44.303Z,99.37
2017-11-10T07:19:46.811Z,84.70
2017-11-10T07:20:50.278Z,85.55
2017-11-10T07:21:53.520Z,78.28
2017-11-10T07:22:56.226Z,84.80
2017-11-10T07:23:58.741Z,88.55
2017-11-10T07:25:01.268Z,92.45
2017-11-10T07:26:04.501Z,83.60
2017-11-10T07:27:07.181Z,92.12
2017-11-10T07:28:09.671Z,90.85
2017-11-10T07:29:12.234Z,95.97
2017-11-10T07:30:14.888Z,87.90
2017-11-10T07:31:17.560Z,95.90
2017-11-10T07:32:20.090Z,98.05
2017-11-10T07:33:22.595Z,83.32
2017-11-10T07:34:25.080Z,86.10
2017-11-10T07:35:27.649Z,84.87
2017-11-10T07:36:30.966Z,90.62
2017-11-10T07:37:33.556Z,86.22
2017-11-10T07:38:36.061Z,81.45
2017-11-10T07:39:38.598Z,82.85
2017-11-10T07:40:41.102Z,92.72
2017-11-10T07:41:44.557Z,83.35
2017-11-10T07:42:47.037Z,97.80
2017-11-10T07:43:49.581Z,85.35
2017-11-10T07:44:52.085Z,85.43
2017-11-10T07:45:54.645Z,77.30
2017-11-10T07:46:57.143Z,82.75
2017-11-10T07:47:59.637Z,85.93
2017-11-10T07:49:02.163Z,87.15
2017-11-10T07:50:05.788Z,81.90
2017-11-10T07:51:08.273Z,82.28
2017-11-10T07:52:11.881Z,86.95
2017-11-10T07:53:14.358Z,73.12
2017-11-10T07:54:17.595Z,85.90
2017-11-10T07:55:20.077Z,79.12
2017-11-10T07:56:22.867Z,84.53
2017-11-10T07:57:25.416Z,86.32
2017-11-10T07:58:28.184Z,84.45
2017-11-10T07:59:30.672Z,75.47
2017-11-10T08:00:33.206Z,69.50
2017-11-10T08:01:35.689Z,79.25
2017-11-10T08:02:38.273Z,76.95
2017-11-10T08:03:40.758Z,66.60
2017-11-10T08:04:44.005Z,75.78
2017-11-10T08:05:46.556Z,78.12
2017-11-10T08:06:49.086Z,68.80
2017-11-10T08:07:51.628Z,69.50
2017-11-10T08:08:54.878Z,81.72
2017-11-10T08:09:57.537Z,75.12
2017-11-10T08:11:00.026Z,69.65
2017-11-10T08:12:03.525Z,72.97
2017-11-10T08:13:06.080Z,66.60
2017-11-10T08:14:08.846Z,71.93
2017-11-10T08:15:11.330Z,69.80
2017-11-10T08:16:14.050Z,64.50
2017-11-10T08:17:16.672Z,67.18
2017-11-10T08:18:19.221Z,64.93
2017-11-10T08:19:23.211Z,62.50
2017-11-10T08:20:25.881Z,66.70
2017-11-10T08:21:28.381Z,65.10
2017-11-10T08:22:31.760Z,66.93
2017-11-10T08:23:34.394Z,66.70
2017-11-10T08:24:37.761Z,62.92
2017-11-10T08:25:43.204Z,77.70
2017-11-10T08:26:47.170Z,69.43
2017-11-10T08:27:52.364Z,72.30
2017-11-10T08:28:56.423Z,67.15
2017-11-10T08:30:00.879Z,62.47
2017-11-10T08:31:04.553Z,67.43
2017-11-10T08:32:07.101Z,59.97
2017-11-10T08:33:09.854Z,67.30
2017-11-10T08:34:12.484Z,63.10
2017-11-10T08:35:15.124Z,57.97
2017-11-10T08:36:17.616Z,65.93
2017-11-10T08:37:20.149Z,56.42
2017-11-10T08:38:22.691Z,57.60
2017-11-10T08:39:25.217Z,66.15
2017-11-10T08:40:27.692Z,63.35
2017-11-10T08:41:31.174Z,61.00
2017-11-10T08:42:34.478Z,64.18
2017-11-10T08:43:37.088Z,59.17
2017-11-10T08:44:39.594Z,65.22
2017-11-10T08:45:43.047Z,59.08
2017-11-10T08:46:45.564Z,63.40
2017-11-10T08:47:48.083Z,58.85
2017-11-10T08:48:50.594Z,61.25
2017-11-10T08:49:54.057Z,60.20
2017-11-10T08:50:56.542Z,52.22
2017-11-10T08:51:59.977Z,61.92
2017-11-10T08:53:02.469Z,57.42
2017-11-10T08:54:06.190Z,60.60
2017-11-10T08:55:08.736Z,54.90
2017-11-10T08:56:11.308Z,51.13
2017-11-10T08:57:14.607Z,51.90
2017-11-10T08:58:17.860Z,58.78
2017-11-10T08:59:20.404Z,54.63
2017-11-10T09:00:24.103Z,52.65
2017-11-10T09:01:26.593Z,47.47
2017-11-10T09:02:30.139Z,46.00
2017-11-10T09:03:33.207Z,52.08
2017-11-10T09:04:35.739Z,47.40
2017-11-10T09:05:38.993Z,45.92
2017-11-10T09:06:41.651Z,52.85
2017-11-10T09:07:44.149Z,45.63
2017-11-10T09:08:46.722Z,44.88
2017-11-10T09:09:50.108Z,53.72
2017-11-10T09:10:53.557Z,53.47
2017-11-10T09:11:56.604Z,45.45
2017-11-10T09:12:59.277Z,40.47
2017-11-10T09:14:01.751Z,47.53
2017-11-10T09:15:05.062Z,45.22
2017-11-10T09:16:07.546Z,49.22
2017-11-10T09:17:10.200Z,43.63
2017-11-10T09:18:12.683Z,40.95
2017-11-10T09:19:16.077Z,45.33
2017-11-10T09:20:19.454Z,40.53
2017-11-10T09:21:24.591Z,41.13
2017-11-10T09:22:28.688Z,40.58
2017-11-10T09:23:31.930Z,40.30
2017-11-10T09:24:34.402Z,42.38
2017-11-10T09:25:36.896Z,41.90
2017-11-10T09:26:39.441Z,39.13
2017-11-10T09:27:41.942Z,38.25
2017-11-10T09:30:39.484Z,32.65
2017-11-10T09:31:45.796Z,32.90
2017-11-10T09:32:55.177Z,33.17
2017-11-10T09:34:21.789Z,33.03
2017-11-10T09:35:40.054Z,32.90
2017-11-10T09:36:48.936Z,38.13
2017-11-10T09:37:58.228Z,33.20
2017-11-10T09:40:42.123Z,30.42
2017-11-10T09:42:02.647Z,32.30
2017-11-10T09:43:05.164Z,35.13
2017-11-10T09:44:08.755Z,28.05
2017-11-10T09:45:24.976Z,32.40
2017-11-10T09:46:33.154Z,31.60
2017-11-10T09:47:42.069Z,33.38
2017-11-10T09:48:50.130Z,29.42
2017-11-10T09:51:40.399Z,34.78
2017-11-10T09:52:46.765Z,31.83
2017-11-10T09:53:54.895Z,33.97
2017-11-10T09:54:59.359Z,35.97
2017-11-10T09:56:17.184Z,36.88
2017-11-10T09:57:25.645Z,39.95
2017-11-10T09:58:30.862Z,40.40
2017-11-10T09:59:33.602Z,37.42
2017-11-10T10:00:37.042Z,44.15
2017-11-10T10:01:46.544Z,37.38
2017-11-10T10:02:59.932Z,40.88
2017-11-10T10:04:08.183Z,37.97
2017-11-10T10:05:18.269Z,41.65
2017-11-10T10:06:29.704Z,37.65
2017-11-10T10:07:37.989Z,31.15
2017-11-10T10:10:21.829Z,34.95
2017-11-10T10:11:41.330Z,36.95
2017-11-10T10:13:03.375Z,37.33
2017-11-10T10:15:51.162Z,37.38
2017-11-10T10:18:50.246Z,39.47
2017-11-10T10:19:56.693Z,50.67
2017-11-10T10:21:11.085Z,43.25
2017-11-10T10:22:33.542Z,40.92
2017-11-10T10:23:36.040Z,42.85
2017-11-10T10:24:38.517Z,37.05
2017-11-10T10:25:41.698Z,40.88
2017-11-10T10:26:44.396Z,39.83
2017-11-10T10:27:48.641Z,35.08
2017-11-10T10:28:51.542Z,45.47
2017-11-10T10:29:54.057Z,38.33
2017-11-10T10:30:56.700Z,37.60
2017-11-10T10:31:59.945Z,36.83
2017-11-10T10:33:03.596Z,40.00
2017-11-10T10:34:06.955Z,40.03
2017-11-10T10:35:10.461Z,37.40
2017-11-10T10:36:13.789Z,40.88
2017-11-10T10:37:17.217Z,40.70
2017-11-10T10:38:19.733Z,38.95
2017-11-10T10:39:22.360Z,41.58
2017-11-10T10:40:25.605Z,33.22
2017-11-10T10:41:28.275Z,34.05
2017-11-10T10:42:30.760Z,43.28
2017-11-10T10:43:33.325Z,34.80
2017-11-10T10:44:35.823Z,36.35
2017-11-10T10:45:39.261Z,34.72
2017-11-10T10:46:41.740Z,35.33
2017-11-10T10:47:44.280Z,37.40
2017-11-10T10:48:46.789Z,33.45
2017-11-10T10:49:50.581Z,33.72
2017-11-10T10:50:53.073Z,36.42
2017-11-10T10:51:55.696Z,39.33
2017-11-10T10:52:58.203Z,35.45
2017-11-10T10:54:00.926Z,38.67
2017-11-10T10:55:03.435Z,41.60
2017-11-10T10:56:06.071Z,36.78
2017-11-10T10:57:08.578Z,36.50
2017-11-10T10:58:11.389Z,47.17
2017-11-10T10:59:13.911Z,38.38
2017-11-10T11:00:16.730Z,33.70
2017-11-10T11:01:19.480Z,37.60
2017-11-10T11:02:22.094Z,32.00
2017-11-10T11:03:24.654Z,36.50
2017-11-10T11:04:27.445Z,32.55
2017-11-10T11:05:30.783Z,36.45
2017-11-10T11:06:33.428Z,33.33
2017-11-10T11:07:36.207Z,33.75
2017-11-10T11:08:39.981Z,32.58
2017-11-10T11:09:42.486Z,32.50
2017-11-10T11:10:45.334Z,37.05
2017-11-10T11:11:47.856Z,34.15
2017-11-10T11:12:50.629Z,32.75
2017-11-10T11:13:53.117Z,33.63
2017-11-10T11:14:57.558Z,34.45
2017-11-10T11:16:00.096Z,40.63
2017-11-10T11:17:02.885Z,35.40
2017-11-10T11:18:05.386Z,31.73
2017-11-10T11:19:08.161Z,36.03
2017-11-10T11:20:10.650Z,40.05
2017-11-10T11:21:14.057Z,36.78
2017-11-10T11:22:17.314Z,33.47
2017-11-10T11:23:20.142Z,35.13
2017-11-10T11:24:22.664Z,41.53
2017-11-10T11:25:26.357Z,35.70
2017-11-10T11:26:29.630Z,35.15
2017-11-10T11:27:32.291Z,36.50
2017-11-10T11:28:34.822Z,32.95
2017-11-10T11:29:37.540Z,37.92
2017-11-10T11:30:40.042Z,34.78
2017-11-10T11:31:43.513Z,38.33
2017-11-10T11:32:46.023Z,36.58
2017-11-10T11:33:48.563Z,35.42
2017-11-10T11:34:51.828Z,41.00
2017-11-10T11:35:54.474Z,34.35
2017-11-10T11:36:56.996Z,40.35
2017-11-10T11:37:59.498Z,32.20
2017-11-10T11:39:02.018Z,33.75
2017-11-10T11:40:05.543Z,37.30
2017-11-10T11:41:08.024Z,38.85
2017-11-10T11:42:12.315Z,34.13
2017-11-10T11:43:14.819Z,32.60
2017-11-10T11:44:17.367Z,36.17
2017-11-10T11:45:20.408Z,37.97
2017-11-10T11:46:24.041Z,40.65
2017-11-10T11:47:26.557Z,36.30
2017-11-10T11:48:29.268Z,35.00
2017-11-10T11:49:31.761Z,34.10
2017-11-10T11:50:34.329Z,36.13
2017-11-10T11:51:37.599Z,37.00
2017-11-10T11:52:40.300Z,33.95
2017-11-10T11:53:43.592Z,32.28
2017-11-10T11:54:46.224Z,38.35
2017-11-10T11:55:49.535Z,40.05
2017-11-10T11:56:52.842Z,38.38
2017-11-10T11:57:55.339Z,34.33
2017-11-10T11:58:59.051Z,30.02
2017-11-10T12:00:01.559Z,40.05
2017-11-10T12:01:04.093Z,33.08
2017-11-10T12:02:06.602Z,39.28
2017-11-10T12:03:09.132Z,29.90
2017-11-10T12:04:12.389Z,32.22
2017-11-10T12:05:15.167Z,37.03
2017-11-10T12:06:17.706Z,38.47
2017-11-10T12:07:20.199Z,37.58
2017-11-10T12:08:22.689Z,32.90
2017-11-10T12:09:25.335Z,30.20
2017-11-10T12:10:28.842Z,36.95
2017-11-10T12:11:32.102Z,29.35
2017-11-10T12:12:36.317Z,30.15
2017-11-10T12:13:39.590Z,33.40
2017-11-10T12:14:42.257Z,35.67
2017-11-10T12:15:44.749Z,30.83
2017-11-10T12:16:48.197Z,29.48
2017-11-10T12:17:50.723Z,30.62
2017-11-10T12:18:53.565Z,29.00
2017-11-10T12:19:56.062Z,27.87
2017-11-10T12:20:58.913Z,29.85
2017-11-10T12:22:02.199Z,28.20
2017-11-10T12:23:08.032Z,30.60
2017-11-10T12:24:10.510Z,31.83
2017-11-10T12:25:13.926Z,28.08
2017-11-10T12:26:17.679Z,29.73
2017-11-10T12:27:21.001Z,34.17
2017-11-10T12:28:23.597Z,33.50
2017-11-10T12:29:26.133Z,27.17
2017-11-10T12:30:28.741Z,30.75
2017-11-10T12:31:31.266Z,29.67
2017-11-10T12:32:34.246Z,31.95
2017-11-10T12:33:36.747Z,27.20
2017-11-10T12:34:39.516Z,28.02
2017-11-10T12:35:43.338Z,29.55
2017-11-10T12:36:46.002Z,27.27
2017-11-10T12:37:48.505Z,30.70
2017-11-10T12:38:53.232Z,22.13
2017-11-10T12:39:55.757Z,23.58
2017-11-10T12:40:58.501Z,24.63
2017-11-10T12:42:01.033Z,25.17
2017-11-10T12:43:05.117Z,23.17
2017-11-10T12:44:08.584Z,25.12
2017-11-10T12:45:12.015Z,25.70
2017-11-10T12:46:14.514Z,21.65
2017-11-10T12:47:20.061Z,26.05
2017-11-10T12:48:22.734Z,28.00
2017-11-10T12:49:26.462Z,25.05
2017-11-10T12:50:29.532Z,21.60
2017-11-10T12:51:32.903Z,25.17
2017-11-10T12:52:35.570Z,24.05
2017-11-10T12:53:38.246Z,19.70
2017-11-10T12:54:42.063Z,21.98
2017-11-10T12:55:45.328Z,20.02
2017-11-10T12:56:47.872Z,25.73
2017-11-10T12:57:50.688Z,21.58
2017-11-10T12:58:53.985Z,19.05
2017-11-10T12:59:56.837Z,18.05
2017-11-10T13:00:59.366Z,19.17
2017-11-10T13:02:01.944Z,21.02
2017-11-10T13:03:04.429Z,19.48
2017-11-10T13:04:06.994Z,19.00
2017-11-10T13:05:09.530Z,20.35
2017-11-10T13:06:12.033Z,21.27
2017-11-10T13:07:14.554Z,19.92
2017-11-10T13:08:17.090Z,21.52
2017-11-10T13:09:19.595Z,20.83
2017-11-10T13:10:22.263Z,20.90
2017-11-10T13:11:24.768Z,19.77
2017-11-10T13:12:27.437Z,22.92
2017-11-10T13:13:31.737Z,20.60
2017-11-10T13:14:34.347Z,18.27
2017-11-10T13:15:37.470Z,18.50
2017-11-10T13:16:41.181Z,18.35
2017-11-10T13:17:43.698Z,17.42
2017-11-10T13:18:47.478Z,17.70
2017-11-10T13:19:50.329Z,16.83
2017-11-10T13:20:54.682Z,17.45
2017-11-10T13:21:58.114Z,16.17
2017-11-10T13:23:00.631Z,16.08
2017-11-10T13:24:03.188Z,20.05
2017-11-10T13:25:06.081Z,15.10
2017-11-10T13:26:08.648Z,17.30
2017-11-10T13:27:11.978Z,18.98
2017-11-10T13:28:15.484Z,17.55
2017-11-10T13:29:19.007Z,12.32
2017-11-10T13:30:21.786Z,17.80
2017-11-10T13:31:24.318Z,16.48
2017-11-10T13:32:28.005Z,13.35
2017-11-10T13:33:32.530Z,17.67
2017-11-10T13:34:36.244Z,14.32
2017-11-10T13:35:38.852Z,16.20
2017-11-10T13:36:42.690Z,22.42
2017-11-10T13:37:45.246Z,16.75
2017-11-10T13:38:49.754Z,15.60
2017-11-10T13:39:53.039Z,18.35
2017-11-10T13:40:59.760Z,14.00
2017-11-10T13:42:04.052Z,17.48